Time;durP1;ratioP1;P1;durP2;ratioP2;P2;SDS_P1;SDS_P2;PMS_P1;PMS_P2;Temp;Humidity;BMP_temperature;BMP_pressure;BME280_temperature;BME280_humidity;BME280_pressure;Samples;Min_cycle;Max_cycle;Signal;HPM_P1;HPM_P2
2024/03/03 00:01:03;;;;;;;35.33;20.77;;;10.90;99.90;;;;;;6184589;23;20493;-61
2024/03/03 00:03:30;;;;;;;36.17;20.33;;;10.90;99.90;;;;;;6183738;23;20832;-63
2024/03/03 00:05:57;;;;;;;41.80;22.67;;;10.90;99.90;;;;;;6184099;23;20436;-62
2024/03/03 00:08:24;;;;;;;33.37;22.30;;;10.90;99.90;;;;;;6184022;23;20481;-60
2024/03/03 00:10:52;;;;;;;37.27;22.90;;;10.80;99.90;;;;;;6184021;23;20485;-62
2024/03/03 00:13:20;;;;;;;38.07;22.07;;;10.80;99.90;;;;;;6183063;23;20759;-63
2024/03/03 00:15:47;;;;;;;35.60;19.53;;;10.80;99.90;;;;;;6184017;23;20409;-62
2024/03/03 00:18:14;;;;;;;45.07;21.90;;;10.80;99.90;;;;;;6183520;23;21080;-63
2024/03/03 00:20:41;;;;;;;43.60;25.00;;;10.80;99.90;;;;;;6183924;23;20776;-63
2024/03/03 00:23:08;;;;;;;42.83;24.00;;;10.70;99.90;;;;;;6183503;23;20516;-64
2024/03/03 00:25:35;;;;;;;35.20;21.10;;;10.70;99.90;;;;;;6184213;23;20484;-61
2024/03/03 00:28:02;;;;;;;36.90;22.17;;;10.70;99.90;;;;;;6184764;23;20492;-62
2024/03/03 00:30:30;;;;;;;33.57;19.80;;;10.70;99.90;;;;;;6184135;23;20416;-62
2024/03/03 00:32:57;;;;;;;44.13;22.80;;;10.60;99.90;;;;;;6180859;23;20453;-63
2024/03/03 00:35:23;;;;;;;37.47;23.60;;;10.60;99.90;;;;;;6183345;23;20521;-63
2024/03/03 00:37:50;;;;;;;37.47;21.20;;;10.60;99.90;;;;;;6182701;23;20495;-62
2024/03/03 00:40:17;;;;;;;43.87;24.23;;;10.60;99.90;;;;;;6183386;23;20994;-64
2024/03/03 00:42:45;;;;;;;41.17;23.43;;;10.60;99.90;;;;;;6182452;23;20461;-62
2024/03/03 00:45:12;;;;;;;46.47;23.07;;;10.60;99.90;;;;;;6182740;23;20866;-64
2024/03/03 00:47:42;;;;;;;41.33;21.17;;;10.60;99.90;;;;;;6183919;23;20424;-61
2024/03/03 00:50:09;;;;;;;48.93;22.90;;;10.60;99.90;;;;;;6183917;23;20405;-62
2024/03/03 00:52:36;;;;;;;44.13;24.23;;;10.60;99.90;;;;;;6182483;23;20437;-63
2024/03/03 00:55:07;;;;;;;39.93;22.07;;;10.60;99.90;;;;;;6181531;22;20447;-65
2024/03/03 00:57:34;;;;;;;41.97;25.33;;;10.60;99.90;;;;;;6243209;23;20395;-65
2024/03/03 01:00:01;;;;;;;41.57;24.53;;;10.60;99.90;;;;;;6244135;23;20400;-64
2024/03/03 01:02:28;;;;;;;38.37;23.67;;;10.60;99.90;;;;;;6234233;23;20424;-64
2024/03/03 01:04:56;;;;;;;39.17;23.13;;;10.50;99.90;;;;;;6213853;23;20483;-64
2024/03/03 01:07:23;;;;;;;43.87;25.53;;;10.50;99.90;;;;;;6213918;23;20487;-64
2024/03/03 01:09:49;;;;;;;44.33;23.27;;;10.50;99.90;;;;;;6214350;23;20401;-63
2024/03/03 01:12:17;;;;;;;45.50;25.20;;;10.50;99.90;;;;;;6213890;23;20901;-63
2024/03/03 01:14:43;;;;;;;43.33;23.73;;;10.40;99.90;;;;;;6214002;23;20401;-66
2024/03/03 01:17:10;;;;;;;42.00;23.00;;;10.40;99.90;;;;;;6214086;23;20872;-64
2024/03/03 01:19:37;;;;;;;46.53;23.10;;;10.40;99.90;;;;;;6214292;23;20436;-64
2024/03/03 01:22:06;;;;;;;39.43;23.47;;;10.30;99.90;;;;;;6213323;23;20435;-66
2024/03/03 01:24:33;;;;;;;49.87;27.50;;;10.30;99.90;;;;;;6213436;23;20444;-65
2024/03/03 01:27:00;;;;;;;48.20;26.40;;;10.30;99.90;;;;;;6213105;23;20462;-65
2024/03/03 01:29:27;;;;;;;48.77;26.37;;;10.30;99.90;;;;;;6213193;23;20408;-64
2024/03/03 01:31:54;;;;;;;46.10;25.07;;;10.20;99.90;;;;;;6212847;23;20431;-64
2024/03/03 01:34:22;;;;;;;50.53;24.40;;;10.20;99.90;;;;;;6213338;23;20760;-63
2024/03/03 01:36:49;;;;;;;46.00;25.03;;;10.20;99.90;;;;;;6213262;23;20408;-63
2024/03/03 01:39:17;;;;;;;46.43;22.73;;;10.20;99.90;;;;;;6213385;23;20451;-65
2024/03/03 01:41:45;;;;;;;43.27;24.30;;;10.20;99.90;;;;;;6213219;23;20467;-64
2024/03/03 01:44:12;;;;;;;43.40;23.70;;;10.20;99.90;;;;;;6213483;23;20949;-64
2024/03/03 01:46:39;;;;;;;46.33;26.47;;;10.10;99.90;;;;;;6213335;23;20408;-64
2024/03/03 01:49:08;;;;;;;44.80;25.03;;;10.10;99.90;;;;;;6213828;23;20408;-64
2024/03/03 01:51:35;;;;;;;40.60;25.20;;;10.10;99.90;;;;;;6213626;23;20479;-63
2024/03/03 01:54:04;;;;;;;46.70;23.80;;;10.10;99.90;;;;;;6212639;23;20522;-63
2024/03/03 01:56:35;;;;;;;49.10;25.33;;;10.10;99.90;;;;;;6212774;23;20926;-63
2024/03/03 01:59:06;;;;;;;34.70;22.70;;;10.10;99.90;;;;;;6213215;23;20384;-63
2024/03/03 02:01:33;;;;;;;40.70;25.93;;;10.00;99.90;;;;;;6212917;23;20395;-65
2024/03/03 02:04:00;;;;;;;42.73;24.53;;;10.10;99.90;;;;;;6212393;23;20444;-65
2024/03/03 02:06:34;;;;;;;46.37;24.47;;;10.00;99.90;;;;;;6213075;23;20400;-64
2024/03/03 02:09:03;;;;;;;39.27;23.53;;;10.00;99.90;;;;;;6213289;23;20451;-64
2024/03/03 02:11:30;;;;;;;45.90;25.50;;;10.00;99.90;;;;;;6212943;23;20405;-65
2024/03/03 02:13:58;;;;;;;41.57;25.27;;;9.90;99.90;;;;;;6212332;23;21017;-63
2024/03/03 02:16:25;;;;;;;41.97;24.87;;;9.90;99.90;;;;;;6212747;23;20401;-63
2024/03/03 02:18:52;;;;;;;47.00;27.00;;;9.90;99.90;;;;;;6213099;23;20408;-64
2024/03/03 02:21:23;;;;;;;47.73;25.60;;;9.90;99.90;;;;;;6213261;23;20400;-64
2024/03/03 02:23:50;;;;;;;49.03;24.40;;;9.90;99.90;;;;;;6212607;23;20527;-64
2024/03/03 02:26:18;;;;;;;43.47;23.60;;;9.90;99.90;;;;;;6213329;23;20428;-64
2024/03/03 02:28:47;;;;;;;45.80;23.60;;;9.90;99.90;;;;;;6213293;23;20384;-64
2024/03/03 02:31:14;;;;;;;46.50;24.47;;;9.90;99.90;;;;;;6211126;23;20404;-64
2024/03/03 02:33:41;;;;;;;42.07;26.53;;;9.80;99.90;;;;;;6212381;23;20483;-64
2024/03/03 02:36:08;;;;;;;47.23;25.60;;;9.80;99.90;;;;;;6213969;23;20432;-64
2024/03/03 02:38:38;;;;;;;45.63;25.23;;;9.80;99.90;;;;;;6215302;23;20407;-63
2024/03/03 02:41:05;;;;;;;42.57;25.60;;;9.80;99.90;;;;;;6217085;23;20438;-64
2024/03/03 02:43:32;;;;;;;43.23;24.60;;;9.70;99.90;;;;;;6214810;23;20440;-64
2024/03/03 02:45:59;;;;;;;50.53;24.73;;;9.70;99.90;;;;;;6213451;23;20408;-63
2024/03/03 02:48:28;;;;;;;45.90;25.00;;;9.70;99.90;;;;;;6213065;23;20408;-64
2024/03/03 02:50:55;;;;;;;43.30;24.10;;;9.70;99.90;;;;;;6213197;23;20400;-64
2024/03/03 02:53:22;;;;;;;53.17;26.43;;;9.70;99.90;;;;;;6212704;23;20510;-64
2024/03/03 02:55:50;;;;;;;48.43;26.37;;;9.70;99.90;;;;;;6213672;23;20517;-64
2024/03/03 02:58:17;;;;;;;53.50;26.00;;;9.70;99.90;;;;;;6215019;23;20404;-64
2024/03/03 03:00:44;;;;;;;50.83;25.40;;;9.70;99.90;;;;;;6214012;23;20412;-63
2024/03/03 03:03:11;;;;;;;47.03;25.37;;;9.60;99.90;;;;;;6214842;23;20474;-64
2024/03/03 03:05:38;;;;;;;56.27;28.23;;;9.70;99.90;;;;;;6216008;23;20405;-64
2024/03/03 03:08:06;;;;;;;47.90;27.17;;;9.70;99.90;;;;;;6214424;23;20408;-63
2024/03/03 03:10:35;;;;;;;47.70;26.13;;;9.70;99.90;;;;;;6212846;23;20428;-63
2024/03/03 03:13:04;;;;;;;44.57;25.30;;;9.70;99.90;;;;;;6212376;23;20420;-64
2024/03/03 03:15:35;;;;;;;53.27;28.30;;;9.70;99.90;;;;;;6212593;23;20435;-63
2024/03/03 03:18:02;;;;;;;42.50;25.73;;;9.70;99.90;;;;;;6212670;23;20385;-64
2024/03/03 03:20:29;;;;;;;53.30;28.47;;;9.60;99.90;;;;;;6213811;23;20899;-64
2024/03/03 03:22:56;;;;;;;45.37;25.60;;;9.60;99.90;;;;;;6213746;23;20459;-64
2024/03/03 03:25:23;;;;;;;50.17;27.87;;;9.60;99.90;;;;;;6214577;23;20476;-64
2024/03/03 03:27:50;;;;;;;46.13;27.70;;;9.60;99.90;;;;;;6214621;23;20431;-64
2024/03/03 03:30:18;;;;;;;49.13;25.97;;;9.60;99.90;;;;;;6214129;23;20483;-64
2024/03/03 03:32:45;;;;;;;46.57;27.80;;;9.60;99.90;;;;;;6214285;23;20798;-66
2024/03/03 03:35:12;;;;;;;55.77;28.87;;;9.60;99.90;;;;;;6214560;23;20898;-64
2024/03/03 03:37:39;;;;;;;56.13;28.57;;;9.60;99.90;;;;;;6215067;23;20920;-64
2024/03/03 03:40:09;;;;;;;48.93;28.00;;;9.60;99.90;;;;;;6215275;23;20400;-64
2024/03/03 03:42:36;;;;;;;58.17;30.47;;;9.60;99.90;;;;;;6214020;23;20934;-63
2024/03/03 03:45:03;;;;;;;55.83;26.30;;;9.60;99.90;;;;;;6214860;23;20468;-64
2024/03/03 03:47:32;;;;;;;52.10;27.87;;;9.60;99.90;;;;;;6214809;23;20401;-64
2024/03/03 03:49:59;;;;;;;45.43;24.63;;;9.60;99.90;;;;;;6215480;23;20404;-64
2024/03/03 03:52:26;;;;;;;49.53;26.47;;;9.60;99.90;;;;;;6214322;23;20914;-64
2024/03/03 03:54:53;;;;;;;51.67;27.10;;;9.60;99.90;;;;;;6214474;23;20476;-63
2024/03/03 03:57:19;;;;;;;56.37;28.07;;;9.50;99.90;;;;;;6214039;23;20448;-64
2024/03/03 03:59:50;;;;;;;47.83;27.60;;;9.60;99.90;;;;;;6214594;23;20428;-64
2024/03/03 04:02:17;;;;;;;52.83;26.50;;;9.60;99.90;;;;;;6213856;23;20479;-64
2024/03/03 04:04:45;;;;;;;50.23;29.40;;;9.60;99.90;;;;;;6214260;23;20673;-64
2024/03/03 04:07:12;;;;;;;49.77;28.70;;;9.60;99.90;;;;;;6214189;23;20439;-64
2024/03/03 04:09:39;;;;;;;48.17;26.37;;;9.50;99.90;;;;;;6214597;23;20439;-64
2024/03/03 04:12:07;;;;;;;52.77;27.03;;;9.50;99.90;;;;;;6213615;23;20757;-62
2024/03/03 04:14:34;;;;;;;45.47;26.73;;;9.50;99.90;;;;;;6214041;23;20400;-63
2024/03/03 04:17:02;;;;;;;48.47;28.50;;;9.50;99.90;;;;;;6214406;23;20443;-64
2024/03/03 04:19:28;;;;;;;51.00;28.30;;;9.60;99.90;;;;;;6214213;23;20886;-64
2024/03/03 04:21:57;;;;;;;53.33;28.37;;;9.50;99.90;;;;;;6213694;23;20958;-63
2024/03/03 04:24:23;;;;;;;52.50;29.17;;;9.50;99.90;;;;;;6214234;23;20472;-65
2024/03/03 04:26:50;;;;;;;50.27;28.47;;;9.50;99.90;;;;;;6214370;23;20404;-64
2024/03/03 04:29:17;;;;;;;49.93;26.27;;;9.50;99.90;;;;;;6214255;23;20879;-64
2024/03/03 04:31:44;;;;;;;48.00;28.33;;;9.60;99.90;;;;;;6213929;23;20404;-64
2024/03/03 04:34:12;;;;;;;43.13;25.30;;;9.50;99.90;;;;;;6214202;23;20479;-63
2024/03/03 04:36:42;;;;;;;49.97;27.57;;;9.50;99.90;;;;;;6213737;23;20405;-63
2024/03/03 04:39:11;;;;;;;59.07;28.60;;;9.60;99.90;;;;;;6214200;23;20468;-64
2024/03/03 04:41:38;;;;;;;63.23;29.93;;;9.60;99.90;;;;;;6213010;23;20745;-65
2024/03/03 04:44:05;;;;;;;55.60;27.30;;;9.60;99.90;;;;;;6211833;23;20591;-64
2024/03/03 04:46:32;;;;;;;50.37;29.13;;;9.60;99.90;;;;;;6212751;23;20403;-64
2024/03/03 04:48:59;;;;;;;60.37;32.10;;;9.60;99.90;;;;;;6213030;23;20434;-63
2024/03/03 04:51:26;;;;;;;52.43;29.30;;;9.60;99.90;;;;;;6213936;23;20440;-65
2024/03/03 04:53:52;;;;;;;50.00;28.47;;;9.60;99.90;;;;;;6211837;23;20428;-65
2024/03/03 04:56:21;;;;;;;45.23;28.50;;;9.60;99.90;;;;;;6213868;23;20447;-64
2024/03/03 04:58:47;;;;;;;51.73;28.00;;;9.60;99.90;;;;;;6214533;23;20794;-63
2024/03/03 05:01:14;;;;;;;51.80;29.50;;;9.60;99.90;;;;;;6214192;23;20472;-63
2024/03/03 05:03:43;;;;;;;45.17;28.27;;;9.60;99.90;;;;;;6213364;23;20428;-66
2024/03/03 05:06:10;;;;;;;46.40;27.73;;;9.60;99.90;;;;;;6213289;23;20447;-63
2024/03/03 05:08:37;;;;;;;42.33;28.37;;;9.60;99.90;;;;;;6214259;23;20476;-63
2024/03/03 05:11:06;;;;;;;51.90;29.43;;;9.60;99.90;;;;;;6214469;23;20404;-64
2024/03/03 05:13:35;;;;;;;55.43;27.43;;;9.60;99.90;;;;;;6215306;23;20431;-64
2024/03/03 05:16:01;;;;;;;47.10;29.37;;;9.60;99.90;;;;;;6214472;23;20432;-64
2024/03/03 05:18:28;;;;;;;50.97;30.00;;;9.60;99.90;;;;;;6213989;23;20880;-64
2024/03/03 05:20:55;;;;;;;50.90;31.60;;;9.70;99.90;;;;;;6213628;23;20895;-63
2024/03/03 05:23:22;;;;;;;50.27;27.70;;;9.70;99.90;;;;;;6213307;23;20781;-64
2024/03/03 05:25:49;;;;;;;45.00;29.30;;;9.70;99.90;;;;;;6213342;23;20436;-64
2024/03/03 05:28:19;;;;;;;48.47;28.03;;;9.70;99.90;;;;;;6213794;23;20439;-64
2024/03/03 05:30:47;;;;;;;51.20;30.37;;;9.70;99.90;;;;;;6213424;23;20942;-62
2024/03/03 05:33:14;;;;;;;48.83;28.97;;;9.70;99.90;;;;;;6212943;23;20454;-65
2024/03/03 05:35:41;;;;;;;52.10;30.40;;;9.70;99.90;;;;;;6213322;23;20771;-63
2024/03/03 05:38:08;;;;;;;56.57;29.33;;;9.70;99.90;;;;;;6213944;23;20734;-64
2024/03/03 05:40:35;;;;;;;49.07;29.13;;;9.70;99.90;;;;;;6213407;23;20479;-63
2024/03/03 05:43:03;;;;;;;43.00;26.17;;;9.70;99.90;;;;;;6213408;23;20474;-63
2024/03/03 05:45:29;;;;;;;51.67;31.37;;;9.80;99.90;;;;;;6213380;23;20472;-64
2024/03/03 05:47:58;;;;;;;53.13;29.17;;;9.80;99.90;;;;;;6214125;23;20743;-63
2024/03/03 05:50:24;;;;;;;53.03;29.40;;;9.80;99.90;;;;;;6213897;23;20401;-64
2024/03/03 05:52:51;;;;;;;42.70;26.87;;;9.90;99.90;;;;;;6213110;23;20503;-64
2024/03/03 05:55:18;;;;;;;60.27;29.53;;;9.90;99.90;;;;;;6213132;23;20436;-65
2024/03/03 05:57:47;;;;;;;54.03;29.10;;;9.90;99.90;;;;;;6213576;23;20388;-64
2024/03/03 06:00:15;;;;;;;48.23;28.97;;;9.90;99.90;;;;;;6213797;23;20419;-65
2024/03/03 06:02:43;;;;;;;48.03;28.60;;;10.00;99.90;;;;;;6212624;23;20432;-64
2024/03/03 06:05:11;;;;;;;45.90;27.40;;;10.00;99.90;;;;;;6213027;23;20440;-64
2024/03/03 06:07:38;;;;;;;49.07;28.77;;;10.00;99.90;;;;;;6213439;23;20444;-64
2024/03/03 06:10:05;;;;;;;51.97;31.47;;;10.00;99.90;;;;;;6213508;23;20412;-63
2024/03/03 06:12:32;;;;;;;52.70;28.50;;;10.00;99.90;;;;;;6212538;23;20424;-63
2024/03/03 06:14:59;;;;;;;49.50;28.20;;;10.00;99.90;;;;;;6213190;23;20463;-64
2024/03/03 06:17:26;;;;;;;46.97;29.27;;;10.10;99.90;;;;;;6213198;23;20486;-64
2024/03/03 06:19:56;;;;;;;51.63;28.67;;;10.10;99.90;;;;;;6213012;23;20400;-62
2024/03/03 06:22:24;;;;;;;46.73;26.77;;;10.10;99.90;;;;;;6212264;23;20448;-66
2024/03/03 06:24:51;;;;;;;50.83;27.63;;;10.10;99.90;;;;;;6212978;23;20786;-64
2024/03/03 06:27:18;;;;;;;47.13;27.27;;;9.90;99.90;;;;;;6212889;23;20397;-64
2024/03/03 06:29:45;;;;;;;61.70;28.87;;;10.10;99.90;;;;;;6212935;23;20475;-65
2024/03/03 06:32:11;;;;;;;48.27;29.53;;;10.10;99.90;;;;;;6212521;23;20424;-64
2024/03/03 06:34:38;;;;;;;47.60;27.13;;;10.10;99.90;;;;;;6212980;23;20790;-64
2024/03/03 06:37:05;;;;;;;49.60;29.70;;;10.20;99.90;;;;;;6213137;23;20411;-64
2024/03/03 06:39:34;;;;;;;55.57;29.33;;;10.20;99.90;;;;;;6212703;23;20401;-64
2024/03/03 06:42:00;;;;;;;50.57;26.83;;;10.20;99.90;;;;;;6212711;23;20400;-64
2024/03/03 06:44:27;;;;;;;46.43;28.90;;;10.20;99.90;;;;;;6212665;23;20436;-64
2024/03/03 06:46:54;;;;;;;58.23;30.67;;;10.20;99.90;;;;;;6212750;23;20400;-63
2024/03/03 06:49:21;;;;;;;47.80;29.27;;;10.30;99.90;;;;;;6213144;23;20731;-65
2024/03/03 06:51:48;;;;;;;47.23;28.60;;;10.30;99.90;;;;;;6211732;23;20507;-63
2024/03/03 06:54:15;;;;;;;47.73;27.53;;;10.40;99.90;;;;;;6213790;23;20733;-63
2024/03/03 06:56:43;;;;;;;48.97;27.90;;;10.40;99.90;;;;;;6214720;23;20443;-64
2024/03/03 06:59:11;;;;;;;50.97;30.27;;;10.50;99.90;;;;;;6214716;23;20405;-64
2024/03/03 07:01:38;;;;;;;47.03;29.50;;;10.50;99.90;;;;;;6214981;23;20745;-65
2024/03/03 07:04:20;;;;;;;44.90;28.43;;;10.50;99.90;;;;;;6214597;23;20479;-66
2024/03/03 07:06:47;;;;;;;58.40;28.00;;;10.60;99.90;;;;;;6214595;23;20507;-65
2024/03/03 07:09:14;;;;;;;54.13;30.60;;;10.60;99.90;;;;;;6215125;23;20381;-64
2024/03/03 07:11:42;;;;;;;49.83;30.97;;;10.70;99.90;;;;;;6214666;23;20400;-63
2024/03/03 07:14:09;;;;;;;49.90;31.00;;;10.70;99.90;;;;;;6214747;23;20783;-64
2024/03/03 07:16:36;;;;;;;46.40;25.53;;;10.70;99.90;;;;;;6214871;23;20396;-66
2024/03/03 07:19:03;;;;;;;56.07;27.80;;;10.90;99.90;;;;;;6214484;23;20490;-65
2024/03/03 07:21:30;;;;;;;50.03;28.20;;;10.90;99.90;;;;;;6214884;23;20404;-65
2024/03/03 07:23:57;;;;;;;50.63;26.60;;;11.00;99.90;;;;;;6213946;23;20704;-63
2024/03/03 07:26:24;;;;;;;50.20;28.57;;;11.00;99.90;;;;;;6212504;23;20443;-64
2024/03/03 07:28:52;;;;;;;41.67;27.77;;;11.10;99.90;;;;;;6213465;23;20435;-64
2024/03/03 07:31:19;;;;;;;44.53;28.77;;;11.10;99.90;;;;;;6214630;23;20937;-65
2024/03/03 07:33:46;;;;;;;40.20;25.23;;;11.10;99.90;;;;;;6214455;23;20452;-63
2024/03/03 07:36:13;;;;;;;52.47;29.17;;;11.10;99.90;;;;;;6214483;23;20431;-64
2024/03/03 07:38:40;;;;;;;44.47;26.93;;;11.20;99.90;;;;;;6220778;23;20462;-64
2024/03/03 07:41:07;;;;;;;47.23;26.67;;;11.20;99.90;;;;;;6215302;23;20404;-63
2024/03/03 07:43:34;;;;;;;39.10;25.57;;;11.30;99.90;;;;;;6214297;23;20503;-64
2024/03/03 07:46:02;;;;;;;42.37;28.43;;;11.40;99.90;;;;;;6214525;23;20491;-64
2024/03/03 07:48:29;;;;;;;39.97;25.20;;;11.40;99.90;;;;;;6214613;23;20458;-64
2024/03/03 07:50:56;;;;;;;48.37;26.83;;;11.50;99.90;;;;;;6214750;23;20487;-63
2024/03/03 07:53:23;;;;;;;46.07;27.37;;;11.50;99.90;;;;;;6213845;23;20503;-64
2024/03/03 07:55:50;;;;;;;47.23;27.53;;;11.60;99.90;;;;;;6215075;23;20404;-62
2024/03/03 07:58:17;;;;;;;40.90;25.37;;;11.70;99.90;;;;;;6217289;23;20439;-64
2024/03/03 08:00:44;;;;;;;37.13;23.67;;;11.70;99.90;;;;;;6215666;23;20415;-63
2024/03/03 08:03:12;;;;;;;42.07;24.33;;;11.80;99.90;;;;;;6214517;23;20452;-62
2024/03/03 08:05:39;;;;;;;50.37;28.27;;;11.90;99.90;;;;;;6214113;23;20475;-64
2024/03/03 08:08:07;;;;;;;43.17;25.70;;;12.00;99.90;;;;;;6214193;23;20440;-63
2024/03/03 08:10:34;;;;;;;36.50;24.30;;;12.00;99.90;;;;;;6213679;23;20469;-64
2024/03/03 08:13:01;;;;;;;32.23;23.00;;;12.10;99.90;;;;;;6213853;23;20479;-63
2024/03/03 08:15:28;;;;;;;42.27;23.73;;;12.10;99.90;;;;;;6214165;23;20488;-64
2024/03/03 08:17:54;;;;;;;41.70;23.33;;;12.10;99.90;;;;;;6214222;23;20404;-64
2024/03/03 08:20:23;;;;;;;35.23;21.80;;;12.10;99.90;;;;;;6213917;23;20504;-64
2024/03/03 08:22:50;;;;;;;43.90;24.83;;;12.20;99.90;;;;;;6213636;23;20426;-65
2024/03/03 08:25:19;;;;;;;40.50;21.93;;;12.20;99.90;;;;;;6214169;23;20472;-65
2024/03/03 08:27:46;;;;;;;34.77;21.47;;;12.20;99.90;;;;;;6214046;23;20401;-64
2024/03/03 08:30:13;;;;;;;39.10;22.70;;;12.30;99.90;;;;;;6212574;23;20412;-65
2024/03/03 08:32:41;;;;;;;40.63;25.60;;;12.40;99.90;;;;;;6212545;23;20459;-65
2024/03/03 08:35:09;;;;;;;36.87;23.37;;;12.40;99.90;;;;;;6213421;23;20435;-65
2024/03/03 08:37:37;;;;;;;32.17;21.47;;;12.50;99.90;;;;;;6213541;23;20487;-65
2024/03/03 08:40:08;;;;;;;36.47;22.87;;;12.60;99.90;;;;;;6213507;23;20439;-54
2024/03/03 08:42:38;;;;;;;30.20;21.67;;;12.60;99.90;;;;;;6213297;23;20483;-55
2024/03/03 08:45:07;;;;;;;32.70;21.67;;;12.60;99.90;;;;;;6210734;23;20486;-56
2024/03/03 08:47:33;;;;;;;39.37;25.00;;;12.70;99.90;;;;;;6214155;23;20451;-52
2024/03/03 08:50:00;;;;;;;37.30;22.40;;;12.80;99.90;;;;;;6213804;23;20424;-52
2024/03/03 08:52:27;;;;;;;31.03;20.80;;;12.80;99.90;;;;;;6213617;23;20419;-53
2024/03/03 08:54:55;;;;;;;37.43;22.20;;;12.90;99.90;;;;;;6213937;23;20432;-59
2024/03/03 08:57:23;;;;;;;27.90;19.37;;;13.00;99.90;;;;;;6213579;23;20406;-50
2024/03/03 08:59:50;;;;;;;31.77;19.17;;;13.10;99.90;;;;;;6214104;23;20404;-56
2024/03/03 09:02:17;;;;;;;37.23;23.20;;;13.10;99.90;;;;;;6212767;23;20511;-57
2024/03/03 09:04:44;;;;;;;28.40;20.57;;;13.20;99.90;;;;;;6213946;23;20458;-53
2024/03/03 09:07:11;;;;;;;33.03;21.53;;;13.30;99.90;;;;;;6213912;23;20965;-64
2024/03/03 09:09:38;;;;;;;29.00;19.73;;;13.50;99.90;;;;;;6213271;23;20401;-59
2024/03/03 09:12:07;;;;;;;32.80;20.40;;;13.80;99.90;;;;;;6213048;23;20810;-56
2024/03/03 09:14:34;;;;;;;25.67;18.17;;;14.00;99.90;;;;;;6213518;23;20409;-55
2024/03/03 09:17:01;;;;;;;23.30;17.60;;;14.60;99.90;;;;;;6211884;23;20401;-57
2024/03/03 09:19:28;;;;;;;21.83;15.57;;;15.30;99.90;;;;;;6212875;23;20463;-58
2024/03/03 09:21:55;;;;;;;26.77;16.40;;;16.30;99.90;;;;;;6212053;23;20405;-57
2024/03/03 09:24:24;;;;;;;22.30;15.40;;;17.50;99.90;;;;;;6210745;23;20965;-56
2024/03/03 09:26:51;;;;;;;20.13;14.93;;;18.50;99.90;;;;;;6210495;23;20762;-55
2024/03/03 09:29:19;;;;;;;19.73;14.43;;;19.40;99.90;;;;;;6212132;23;20404;-53
2024/03/03 09:31:46;;;;;;;21.77;17.30;;;19.80;99.90;;;;;;6210963;23;20484;-54
2024/03/03 09:34:13;;;;;;;23.40;15.13;;;19.60;99.90;;;;;;6212493;23;20404;-55
2024/03/03 09:36:42;;;;;;;19.73;14.87;;;19.20;99.90;;;;;;6211929;23;20475;-53
2024/03/03 09:39:09;;;;;;;25.60;16.40;;;18.70;99.90;;;;;;6213609;23;20409;-56
2024/03/03 09:41:36;;;;;;;21.17;13.77;;;18.10;99.90;;;;;;6214754;23;20451;-58
2024/03/03 09:44:10;;;;;;;25.47;16.47;;;17.70;99.90;;;;;;6213435;23;20421;-59
2024/03/03 09:46:40;;;;;;;21.20;14.00;;;17.40;99.90;;;;;;6216227;23;20436;-56
2024/03/03 09:49:11;;;;;;;18.90;13.30;;;17.60;99.90;;;;;;6214783;23;20411;-57
2024/03/03 09:51:41;;;;;;;18.40;13.73;;;18.40;99.90;;;;;;6216026;23;20917;-57
2024/03/03 09:54:12;;;;;;;19.33;12.83;;;18.60;99.90;;;;;;6214391;23;20977;-58
2024/03/03 09:56:42;;;;;;;15.87;11.37;;;18.50;99.90;;;;;;6213099;23;20410;-57
2024/03/03 09:59:09;;;;;;;19.10;14.10;;;18.70;99.90;;;;;;6213395;23;20674;-57
2024/03/03 10:01:40;;;;;;;18.20;11.80;;;19.60;99.90;;;;;;6212318;23;20487;-51
2024/03/03 10:04:08;;;;;;;18.03;11.77;;;20.70;99.90;;;;;;6212900;23;20740;-52
2024/03/03 10:06:37;;;;;;;20.00;13.60;;;21.80;99.90;;;;;;6213660;23;20447;-58
2024/03/03 10:09:09;;;;;;;22.63;15.83;;;22.80;99.90;;;;;;6213259;23;20436;-56
2024/03/03 10:11:37;;;;;;;12.80;10.30;;;23.60;96.80;;;;;;6213080;23;20399;-56
2024/03/03 10:14:04;;;;;;;16.10;10.47;;;24.20;93.60;;;;;;6212487;23;20427;-58
2024/03/03 10:16:34;;;;;;;17.00;11.03;;;24.50;90.50;;;;;;6211858;23;20428;-57
2024/03/03 10:19:04;;;;;;;11.83;9.40;;;24.80;86.90;;;;;;6212657;23;20400;-56
2024/03/03 10:21:34;;;;;;;16.90;11.10;;;25.00;84.40;;;;;;6213182;23;20489;-54
2024/03/03 10:24:22;;;;;;;14.60;10.00;;;25.20;80.60;;;;;;6212509;23;20427;-55
2024/03/03 10:26:49;;;;;;;16.40;10.77;;;25.10;78.00;;;;;;6212802;23;20424;-55
2024/03/03 10:29:19;;;;;;;14.20;10.30;;;25.10;76.80;;;;;;6211686;23;20741;-53
2024/03/03 10:31:46;;;;;;;13.60;9.73;;;25.00;76.50;;;;;;6212042;23;20802;-52
2024/03/03 10:34:18;;;;;;;16.87;11.07;;;24.30;76.10;;;;;;6212982;23;20717;-55
2024/03/03 10:36:45;;;;;;;12.73;9.70;;;23.90;77.10;;;;;;6210377;23;20495;-57
2024/03/03 10:39:12;;;;;;;12.20;8.07;;;23.90;77.20;;;;;;6211786;23;20428;-56
2024/03/03 10:41:39;;;;;;;19.20;11.60;;;23.60;76.90;;;;;;6210468;23;20408;-58
2024/03/03 10:44:08;;;;;;;15.83;10.67;;;23.20;77.90;;;;;;6210383;23;20455;-59
2024/03/03 10:46:37;;;;;;;10.97;9.07;;;22.60;79.50;;;;;;6209532;23;20444;-57
2024/03/03 10:49:04;;;;;;;13.13;9.73;;;22.30;80.10;;;;;;6211001;23;20440;-57
2024/03/03 10:51:33;;;;;;;9.97;7.83;;;21.80;82.20;;;;;;6207472;23;20898;-58
2024/03/03 10:54:02;;;;;;;10.77;9.00;;;21.80;82.80;;;;;;6210216;23;20504;-55
2024/03/03 10:56:30;;;;;;;12.90;8.97;;;21.10;83.50;;;;;;6211214;23;20404;-51
2024/03/03 10:58:58;;;;;;;13.73;8.83;;;20.40;86.30;;;;;;6212965;23;20435;-54
2024/03/03 11:01:25;;;;;;;13.10;8.93;;;19.50;89.60;;;;;;6211436;23;20462;-56
2024/03/03 11:03:55;;;;;;;12.73;9.33;;;18.90;91.40;;;;;;6213975;23;20424;-54
2024/03/03 11:06:24;;;;;;;10.70;7.90;;;18.50;92.90;;;;;;6214296;23;20436;-55
2024/03/03 11:08:54;;;;;;;13.43;9.10;;;18.10;94.30;;;;;;6214083;23;20408;-59
2024/03/03 11:11:25;;;;;;;12.67;10.63;;;17.80;96.10;;;;;;6213431;23;20772;-54
2024/03/03 11:13:57;;;;;;;10.93;8.43;;;17.50;97.70;;;;;;6210375;23;20483;-56
2024/03/03 11:16:27;;;;;;;15.03;9.20;;;17.30;99.90;;;;;;6212323;23;20439;-57
2024/03/03 11:18:57;;;;;;;13.80;9.27;;;17.00;99.90;;;;;;6211234;23;20409;-56
2024/03/03 11:21:28;;;;;;;15.47;8.30;;;16.90;99.90;;;;;;6211885;23;20409;-55
2024/03/03 11:24:05;;;;;;;11.50;8.37;;;16.80;99.90;;;;;;6209994;23;20434;-52
2024/03/03 11:26:36;;;;;;;15.13;9.30;;;16.70;99.90;;;;;;6213525;23;20483;-56
2024/03/03 11:29:05;;;;;;;14.57;7.60;;;16.60;99.90;;;;;;6212256;23;20412;-53
2024/03/03 11:31:32;;;;;;;13.00;8.23;;;16.50;99.90;;;;;;6211401;23;20405;-51
2024/03/03 11:34:00;;;;;;;12.57;9.93;;;16.50;99.90;;;;;;6211082;23;20877;-56
2024/03/03 11:36:28;;;;;;;13.97;9.07;;;16.50;99.90;;;;;;6212135;23;20404;-54
2024/03/03 11:38:58;;;;;;;12.97;8.87;;;16.50;99.90;;;;;;6211485;23;20408;-52
2024/03/03 11:41:29;;;;;;;13.17;10.13;;;16.50;99.90;;;;;;6209900;23;20833;-55
2024/03/03 11:43:55;;;;;;;15.90;10.60;;;16.40;99.90;;;;;;6213742;23;20751;-57
2024/03/03 11:46:48;;;;;;;17.17;10.80;;;16.40;99.90;;;;;;6212602;23;20436;-55
2024/03/03 11:49:17;;;;;;;15.67;10.97;;;16.30;99.90;;;;;;6214833;23;21017;-55
2024/03/03 11:51:44;;;;;;;17.87;10.07;;;16.30;99.90;;;;;;6212916;23;20495;-56
2024/03/03 11:54:14;;;;;;;17.13;11.00;;;16.40;99.90;;;;;;6215663;23;20436;-56
2024/03/03 11:56:46;;;;;;;17.23;11.97;;;16.40;99.90;;;;;;6215818;23;20417;-57
2024/03/03 11:59:13;;;;;;;14.37;9.80;;;16.50;99.90;;;;;;6215466;23;20483;-50
2024/03/03 12:01:45;;;;;;;17.10;10.03;;;16.40;99.90;;;;;;6216385;23;20490;-57
2024/03/03 12:04:12;;;;;;;15.43;9.43;;;16.40;99.90;;;;;;6217092;23;20389;-59
2024/03/03 12:06:42;;;;;;;16.17;9.47;;;16.40;99.90;;;;;;6216498;23;20440;-54
2024/03/03 12:09:11;;;;;;;13.73;10.70;;;16.40;99.90;;;;;;6216712;23;20887;-59
2024/03/03 12:11:38;;;;;;;14.30;10.13;;;16.40;99.90;;;;;;6214846;23;20409;-54
2024/03/03 12:14:06;;;;;;;13.80;9.23;;;16.30;99.90;;;;;;6215110;23;20428;-55
2024/03/03 12:16:33;;;;;;;19.20;11.63;;;16.30;99.90;;;;;;6215642;23;20404;-55
2024/03/03 12:19:01;;;;;;;15.50;10.70;;;16.30;99.90;;;;;;6213613;23;20902;-51
2024/03/03 12:21:28;;;;;;;17.97;11.77;;;16.30;99.90;;;;;;6213931;23;20412;-56
2024/03/03 12:23:55;;;;;;;15.00;11.20;;;16.20;99.90;;;;;;6212983;23;20478;-56
2024/03/03 12:26:23;;;;;;;19.40;11.90;;;16.10;99.90;;;;;;6213783;23;20472;-56
2024/03/03 12:28:51;;;;;;;17.60;12.10;;;16.10;99.90;;;;;;6213979;23;20400;-55
2024/03/03 12:31:18;;;;;;;15.90;11.10;;;15.90;99.90;;;;;;6212942;23;20401;-56
2024/03/03 12:33:45;;;;;;;14.33;10.73;;;15.90;99.90;;;;;;6212775;23;20608;-51